Time;durP1;ratioP1;P1;durP2;ratioP2;P2;SDS_P1;SDS_P2;PMS_P1;PMS_P2;Temp;Humidity;BMP_temperature;BMP_pressure;BME280_temperature;BME280_humidity;BME280_pressure;Samples;Min_cycle;Max_cycle;Signal;HPM_P1;HPM_P2
2022/09/16 00:01:25;;;;;;;6.23;4.93;;;14.20;99.90;;;;;;5029973;28;20189;-76
2022/09/16 00:03:56;;;;;;;7.50;5.10;;;14.30;99.90;;;;;;5031385;28;20825;-76
2022/09/16 00:06:27;;;;;;;6.30;5.37;;;14.30;99.90;;;;;;5031228;28;20204;-76
2022/09/16 00:08:59;;;;;;;5.03;4.50;;;14.30;99.90;;;;;;5029737;28;20464;-76
2022/09/16 00:11:26;;;;;;;8.10;5.50;;;14.30;99.90;;;;;;5031255;28;20415;-76
2022/09/16 00:13:52;;;;;;;7.77;5.73;;;14.30;99.90;;;;;;5029831;28;21068;-76
2022/09/16 00:16:28;;;;;;;13.77;5.40;;;14.30;99.90;;;;;;5031307;28;20511;-76
2022/09/16 00:18:56;;;;;;;7.07;5.90;;;14.30;99.90;;;;;;5030046;28;20169;-77
2022/09/16 00:21:23;;;;;;;8.60;5.90;;;14.30;99.90;;;;;;5013220;28;20435;-76
2022/09/16 00:23:49;;;;;;;9.53;5.53;;;14.30;99.90;;;;;;5029581;28;20455;-76
2022/09/16 00:26:15;;;;;;;6.73;4.93;;;14.30;99.90;;;;;;5031476;28;20833;-76
2022/09/16 00:28:40;;;;;;;8.53;4.57;;;14.30;99.90;;;;;;5030974;28;20228;-76
2022/09/16 00:31:06;;;;;;;6.33;4.97;;;14.30;99.90;;;;;;5031873;28;20877;-77
2022/09/16 00:33:32;;;;;;;13.17;4.33;;;14.30;99.90;;;;;;5030065;28;20225;-77
2022/09/16 00:36:09;;;;;;;7.37;5.17;;;14.30;99.90;;;;;;5031622;28;20658;-77
2022/09/16 00:38:35;;;;;;;6.70;5.50;;;14.40;99.90;;;;;;5031444;28;20275;-77
2022/09/16 00:41:01;;;;;;;11.90;5.40;;;14.30;99.90;;;;;;5031243;28;20543;-76
2022/09/16 00:43:26;;;;;;;6.97;4.80;;;14.40;99.90;;;;;;5029794;28;20211;-76
2022/09/16 00:46:00;;;;;;;5.10;4.10;;;14.40;99.90;;;;;;5030729;28;20193;-76
2022/09/16 00:48:28;;;;;;;7.40;5.63;;;14.30;99.90;;;;;;5030572;28;20216;-76
2022/09/16 00:50:58;;;;;;;11.60;5.10;;;14.30;99.90;;;;;;5030412;28;20430;-76
2022/09/16 00:53:41;;;;;;;7.70;4.53;;;14.30;99.90;;;;;;5030414;28;20444;-76
2022/09/16 00:56:09;;;;;;;11.27;4.90;;;14.30;99.90;;;;;;5030588;28;20489;-76
2022/09/16 00:58:46;;;;;;;9.03;5.00;;;14.20;99.90;;;;;;5030636;28;20515;-76
2022/09/16 01:01:11;;;;;;;5.73;4.90;;;14.20;99.90;;;;;;5030786;28;20509;-75
2022/09/16 01:03:44;;;;;;;6.53;5.70;;;14.20;99.90;;;;;;5029367;28;20475;-76
2022/09/16 01:06:12;;;;;;;6.60;5.50;;;14.20;99.90;;;;;;5030841;28;20692;-76
2022/09/16 01:08:41;;;;;;;10.67;5.73;;;14.10;99.90;;;;;;5029267;28;21041;-76
2022/09/16 01:11:07;;;;;;;6.17;5.30;;;14.10;99.90;;;;;;5030782;28;20428;-76
2022/09/16 01:13:32;;;;;;;8.97;5.70;;;14.20;99.90;;;;;;5029274;28;20482;-76
2022/09/16 01:16:37;;;;;;;8.30;5.43;;;14.20;99.90;;;;;;5029276;28;20190;-76
2022/09/16 01:19:10;;;;;;;6.07;4.93;;;14.30;99.90;;;;;;5030445;28;20174;-76
2022/09/16 01:22:05;;;;;;;5.60;4.60;;;14.30;99.90;;;;;;5030342;28;20530;-75
2022/09/16 01:24:48;;;;;;;9.00;6.10;;;14.30;99.90;;;;;;5030351;28;20886;-76
2022/09/16 01:27:29;;;;;;;7.30;5.63;;;14.30;99.90;;;;;;5028827;28;20518;-75
2022/09/16 01:30:12;;;;;;;6.83;5.40;;;14.40;99.90;;;;;;5029907;28;20836;-76
2022/09/16 01:32:57;;;;;;;8.40;5.80;;;14.40;99.90;;;;;;5029802;28;20435;-75
2022/09/16 01:35:49;;;;;;;7.40;5.43;;;14.40;99.90;;;;;;5029796;28;20420;-77
2022/09/16 01:38:14;;;;;;;13.10;5.40;;;14.50;99.90;;;;;;5028121;28;20485;-77
2022/09/16 01:41:17;;;;;;;10.90;5.90;;;14.40;99.90;;;;;;5029481;28;20419;-76
2022/09/16 01:44:18;;;;;;;10.17;5.33;;;14.50;99.90;;;;;;5016510;28;20247;-76
2022/09/16 01:47:04;;;;;;;8.60;6.47;;;14.50;99.90;;;;;;5026445;28;20923;-76
2022/09/16 01:49:50;;;;;;;8.50;5.47;;;14.50;99.90;;;;;;5029182;28;20474;-76
2022/09/16 01:52:24;;;;;;;8.93;5.70;;;14.50;99.90;;;;;;5029107;28;20429;-76
2022/09/16 01:55:01;;;;;;;7.10;5.77;;;14.50;99.90;;;;;;5029433;28;20419;-76
2022/09/16 01:57:33;;;;;;;12.97;5.50;;;14.60;99.90;;;;;;5029159;28;20478;-77
2022/09/16 02:00:12;;;;;;;10.90;5.80;;;14.60;99.90;;;;;;5029209;28;20423;-77
2022/09/16 02:02:54;;;;;;;8.13;5.83;;;14.50;99.90;;;;;;5027842;28;20513;-76
2022/09/16 02:05:26;;;;;;;7.50;5.50;;;14.60;99.90;;;;;;5029508;28;20423;-76
2022/09/16 02:08:01;;;;;;;7.47;5.70;;;14.60;99.90;;;;;;5029348;28;20419;-76
2022/09/16 02:10:30;;;;;;;7.30;5.20;;;14.60;99.90;;;;;;5028002;28;20454;-76
2022/09/16 02:13:02;;;;;;;8.73;5.30;;;14.60;99.90;;;;;;5027471;28;20562;-76
2022/09/16 02:15:31;;;;;;;8.00;5.17;;;14.60;99.90;;;;;;5029137;28;20427;-76
2022/09/16 02:18:05;;;;;;;8.00;6.27;;;14.60;99.90;;;;;;5028864;28;20416;-76
2022/09/16 02:20:33;;;;;;;8.30;6.00;;;14.50;99.90;;;;;;5028978;28;20432;-76
2022/09/16 02:23:04;;;;;;;8.47;5.80;;;14.60;99.90;;;;;;5029716;28;20439;-76
2022/09/16 02:25:33;;;;;;;7.47;5.60;;;14.60;99.90;;;;;;5029289;28;20907;-76
2022/09/16 02:28:01;;;;;;;9.07;5.47;;;14.50;99.90;;;;;;5028687;28;20419;-76
2022/09/16 02:30:27;;;;;;;12.10;6.47;;;14.40;99.90;;;;;;5027183;28;20427;-76
2022/09/16 02:32:59;;;;;;;10.30;6.97;;;14.40;99.90;;;;;;5010835;28;20455;-76
2022/09/16 02:35:26;;;;;;;10.83;6.00;;;14.40;99.90;;;;;;5026979;28;20184;-76
2022/09/16 02:38:04;;;;;;;9.30;5.57;;;14.50;99.90;;;;;;5028633;28;20416;-76
2022/09/16 02:40:51;;;;;;;5.63;5.00;;;14.50;99.90;;;;;;5028491;28;20417;-76
2022/09/16 02:43:17;;;;;;;4.63;4.23;;;14.40;99.90;;;;;;5028299;28;20490;-76
2022/09/16 02:46:01;;;;;;;7.67;4.87;;;14.40;99.90;;;;;;5028375;28;20517;-76
2022/09/16 02:48:30;;;;;;;6.03;5.30;;;14.30;99.90;;;;;;5028388;28;20536;-76
2022/09/16 02:51:40;;;;;;;8.07;5.70;;;14.30;99.90;;;;;;5028662;28;20501;-77
2022/09/16 02:54:21;;;;;;;7.13;5.50;;;14.20;99.90;;;;;;4993913;28;20484;-76
2022/09/16 02:56:47;;;;;;;7.47;5.57;;;14.10;99.90;;;;;;5028427;28;20415;-76
2022/09/16 02:59:14;;;;;;;6.47;5.87;;;14.10;99.90;;;;;;5026892;28;20489;-76
2022/09/16 03:01:43;;;;;;;8.33;6.10;;;13.90;99.90;;;;;;5026663;28;20513;-76
2022/09/16 03:04:11;;;;;;;8.67;5.50;;;14.00;99.90;;;;;;5028151;28;20545;-77
2022/09/16 03:06:38;;;;;;;12.17;6.50;;;14.10;99.90;;;;;;5029184;28;20470;-77
2022/09/16 03:09:08;;;;;;;8.73;6.17;;;14.10;99.90;;;;;;4998338;28;21044;-77
2022/09/16 03:11:53;;;;;;;7.37;6.30;;;14.00;99.90;;;;;;5032361;28;20427;-77
2022/09/16 03:14:30;;;;;;;10.33;6.87;;;14.00;99.90;;;;;;5031924;28;20455;-77
2022/09/16 03:17:14;;;;;;;10.67;6.87;;;14.00;99.90;;;;;;5031964;28;20514;-77
2022/09/16 03:20:21;;;;;;;9.20;6.07;;;14.10;99.90;;;;;;5032024;28;20427;-77
2022/09/16 03:23:24;;;;;;;10.23;6.33;;;14.00;99.90;;;;;;5032271;28;20522;-76
2022/09/16 03:26:11;;;;;;;10.80;7.07;;;14.00;99.90;;;;;;5031169;28;20431;-78
2022/09/16 03:29:11;;;;;;;10.70;6.57;;;14.00;99.90;;;;;;5030767;28;20470;-77
2022/09/16 03:31:45;;;;;;;8.53;6.70;;;14.00;99.90;;;;;;5032284;28;20784;-77
2022/09/16 03:34:18;;;;;;;12.33;7.53;;;14.00;99.90;;;;;;5031852;28;20415;-76
2022/09/16 03:36:51;;;;;;;8.67;7.23;;;14.10;99.90;;;;;;5032000;28;20423;-77
2022/09/16 03:39:17;;;;;;;10.93;7.20;;;14.00;99.90;;;;;;5030658;28;20424;-77
2022/09/16 03:41:43;;;;;;;8.37;6.90;;;14.00;99.90;;;;;;5032053;28;20427;-77
2022/09/16 03:44:09;;;;;;;16.73;7.80;;;13.90;99.90;;;;;;5031630;28;20462;-77
2022/09/16 03:46:35;;;;;;;8.40;6.80;;;14.10;99.90;;;;;;5031736;28;20461;-77
2022/09/16 03:49:00;;;;;;;8.57;6.30;;;14.10;99.90;;;;;;5031670;28;20703;-76
2022/09/16 03:51:26;;;;;;;13.67;7.00;;;14.10;99.90;;;;;;5031627;28;20211;-77
2022/09/16 03:53:52;;;;;;;11.20;7.33;;;14.20;99.90;;;;;;5030230;28;20185;-76
2022/09/16 03:56:18;;;;;;;12.27;6.50;;;14.20;99.90;;;;;;5031980;28;20261;-77
2022/09/16 03:58:45;;;;;;;9.77;7.00;;;14.20;99.90;;;;;;5030320;28;20425;-76
2022/09/16 04:01:11;;;;;;;11.30;7.40;;;14.20;99.90;;;;;;5013623;28;20193;-75
2022/09/16 04:03:37;;;;;;;8.63;6.47;;;14.10;99.90;;;;;;5031370;28;20454;-76
2022/09/16 04:06:03;;;;;;;13.07;7.87;;;14.20;99.90;;;;;;5031298;28;20207;-76
2022/09/16 04:08:28;;;;;;;9.23;6.90;;;14.10;99.90;;;;;;5031269;28;20311;-76
2022/09/16 04:10:59;;;;;;;9.30;6.17;;;14.20;99.90;;;;;;5031497;28;20523;-76
2022/09/16 04:13:27;;;;;;;7.47;6.70;;;14.20;99.90;;;;;;5031161;28;20221;-76
2022/09/16 04:15:53;;;;;;;8.37;7.33;;;14.10;99.90;;;;;;5031359;28;20423;-76
2022/09/16 04:18:19;;;;;;;9.10;7.30;;;14.10;99.90;;;;;;5028909;28;20868;-76
2022/09/16 04:20:45;;;;;;;14.87;7.87;;;14.20;99.90;;;;;;5032148;28;20191;-77
2022/09/16 04:23:11;;;;;;;12.57;7.10;;;14.10;99.90;;;;;;5031147;28;20862;-75
2022/09/16 04:25:36;;;;;;;8.90;7.30;;;14.10;99.90;;;;;;5030128;28;20262;-75
2022/09/16 04:28:02;;;;;;;9.87;7.13;;;14.10;99.90;;;;;;5029186;28;20466;-75
2022/09/16 04:30:28;;;;;;;7.77;6.87;;;14.10;99.90;;;;;;5027736;28;20709;-75
2022/09/16 04:32:54;;;;;;;10.27;7.40;;;14.10;99.90;;;;;;5029150;28;20205;-75
2022/09/16 04:35:20;;;;;;;9.33;7.07;;;14.10;99.90;;;;;;5029340;28;20923;-75
2022/09/16 04:37:46;;;;;;;11.27;6.50;;;14.10;99.90;;;;;;5029086;28;20421;-75
2022/09/16 04:40:12;;;;;;;7.50;6.80;;;14.10;99.90;;;;;;5027382;28;20427;-75
2022/09/16 04:42:37;;;;;;;12.53;6.23;;;14.10;99.90;;;;;;5028909;28;20215;-75
2022/09/16 04:45:04;;;;;;;13.90;6.90;;;14.10;99.90;;;;;;5029300;28;20221;-75
2022/09/16 04:47:30;;;;;;;9.20;5.90;;;14.10;99.90;;;;;;5029302;28;20196;-75
2022/09/16 04:49:55;;;;;;;8.70;5.40;;;14.10;99.90;;;;;;5029133;28;20640;-75
2022/09/16 04:52:21;;;;;;;10.83;5.43;;;14.10;99.90;;;;;;5012320;28;20518;-75
2022/09/16 04:54:46;;;;;;;7.07;5.20;;;14.10;99.90;;;;;;5031631;28;20197;-75
2022/09/16 04:57:12;;;;;;;7.70;6.33;;;14.10;99.90;;;;;;5031444;28;20188;-75
2022/09/16 04:59:38;;;;;;;9.93;5.33;;;14.00;99.90;;;;;;5031449;28;20196;-75
2022/09/16 05:02:03;;;;;;;9.77;5.37;;;14.00;99.90;;;;;;5030984;28;20218;-74
2022/09/16 05:04:29;;;;;;;7.07;5.70;;;14.00;99.90;;;;;;5030360;28;20193;-76
2022/09/16 05:06:54;;;;;;;13.53;5.30;;;13.90;99.90;;;;;;5030418;28;20699;-76
2022/09/16 05:09:23;;;;;;;7.07;5.70;;;13.80;99.90;;;;;;5030766;28;20302;-75
2022/09/16 05:11:49;;;;;;;9.90;5.87;;;13.80;99.90;;;;;;5029223;28;20306;-76
2022/09/16 05:14:16;;;;;;;10.50;7.00;;;13.90;99.90;;;;;;5029499;28;20439;-77
2022/09/16 05:16:43;;;;;;;14.10;7.13;;;13.90;99.90;;;;;;5029878;28;20181;-76
2022/09/16 05:19:13;;;;;;;10.50;7.63;;;13.90;99.90;;;;;;5031836;28;20419;-77
2022/09/16 05:21:39;;;;;;;7.87;7.10;;;13.90;99.90;;;;;;5029918;28;20828;-77
2022/09/16 05:24:07;;;;;;;8.83;6.20;;;14.00;99.90;;;;;;5031171;28;20505;-77
2022/09/16 05:26:35;;;;;;;10.40;7.60;;;14.10;99.90;;;;;;5030818;28;20459;-77
2022/09/16 05:29:03;;;;;;;11.43;7.00;;;14.00;99.90;;;;;;5030610;28;20487;-77
2022/09/16 05:31:30;;;;;;;7.80;6.73;;;14.00;99.90;;;;;;5030190;28;20415;-77
2022/09/16 05:33:57;;;;;;;8.93;5.90;;;14.00;99.90;;;;;;5030289;28;20458;-77
2022/09/16 05:36:23;;;;;;;10.00;6.47;;;14.00;99.90;;;;;;5030559;28;20470;-77
2022/09/16 05:38:49;;;;;;;10.27;5.87;;;14.00;99.90;;;;;;5028623;28;20435;-76
2022/09/16 05:41:15;;;;;;;10.73;6.93;;;14.00;99.90;;;;;;5030257;28;21022;-76
2022/09/16 05:43:41;;;;;;;8.00;6.00;;;14.00;99.90;;;;;;5030118;28;20209;-77
2022/09/16 05:46:06;;;;;;;11.53;5.57;;;14.00;99.90;;;;;;5030729;28;20273;-77
2022/09/16 05:48:33;;;;;;;14.87;5.67;;;14.00;99.90;;;;;;5029595;28;20213;-77
2022/09/16 05:51:01;;;;;;;10.73;6.40;;;14.00;99.90;;;;;;5030326;28;20184;-77
2022/09/16 05:53:28;;;;;;;15.20;6.20;;;13.90;99.90;;;;;;5030643;28;20447;-77
2022/09/16 05:56:09;;;;;;;10.40;5.40;;;13.90;99.90;;;;;;5028692;28;20435;-77
2022/09/16 05:58:35;;;;;;;12.13;4.90;;;13.90;99.90;;;;;;5029924;28;20426;-76
2022/09/16 06:01:07;;;;;;;8.90;4.80;;;13.90;99.90;;;;;;5030207;28;20423;-77
2022/09/16 06:03:34;;;;;;;8.70;4.30;;;13.90;99.90;;;;;;5030183;28;20597;-76
2022/09/16 06:06:01;;;;;;;9.13;4.57;;;13.80;99.90;;;;;;5030503;28;20463;-77
2022/09/16 06:08:31;;;;;;;10.87;5.17;;;13.80;99.90;;;;;;5029354;28;20462;-77
2022/09/16 06:11:01;;;;;;;13.50;5.70;;;13.90;99.90;;;;;;5028594;28;20462;-76
2022/09/16 06:13:27;;;;;;;11.70;5.53;;;13.80;99.90;;;;;;5029844;28;20455;-75
2022/09/16 06:15:55;;;;;;;6.93;5.30;;;13.70;99.90;;;;;;5031004;28;20427;-76
2022/09/16 06:18:26;;;;;;;9.67;5.40;;;13.80;99.90;;;;;;5028879;28;20431;-77
2022/09/16 06:20:52;;;;;;;11.13;6.13;;;13.80;99.90;;;;;;5029799;28;20542;-76
2022/09/16 06:23:18;;;;;;;11.83;6.20;;;13.70;99.90;;;;;;5028032;28;20566;-76
2022/09/16 06:25:44;;;;;;;13.70;5.93;;;13.70;99.90;;;;;;5028426;28;20196;-76
2022/09/16 06:28:10;;;;;;;17.00;7.47;;;13.70;99.90;;;;;;5027974;28;21079;-76
2022/09/16 06:30:40;;;;;;;13.30;6.97;;;13.70;99.90;;;;;;5028963;28;20422;-76
2022/09/16 06:33:06;;;;;;;12.80;7.33;;;13.70;99.90;;;;;;5028928;28;20435;-76
2022/09/16 06:35:33;;;;;;;18.37;6.60;;;13.70;99.90;;;;;;5027846;28;20433;-76
2022/09/16 06:37:59;;;;;;;8.57;6.17;;;13.70;99.90;;;;;;5028729;28;20435;-76
2022/09/16 06:40:25;;;;;;;11.83;6.90;;;13.70;99.90;;;;;;5028986;28;20420;-77
2022/09/16 06:42:54;;;;;;;8.03;6.30;;;13.50;99.90;;;;;;5013671;28;20506;-76
2022/09/16 06:45:23;;;;;;;11.17;7.30;;;13.50;99.90;;;;;;5032868;28;20993;-76
2022/09/16 06:47:49;;;;;;;13.43;7.33;;;13.50;99.90;;;;;;5031929;28;20462;-76
2022/09/16 06:50:15;;;;;;;10.23;7.53;;;13.50;99.90;;;;;;5033217;28;20993;-77
2022/09/16 06:52:40;;;;;;;9.90;7.30;;;13.50;99.90;;;;;;5031170;28;20586;-75
2022/09/16 06:55:06;;;;;;;16.27;7.13;;;13.40;99.90;;;;;;5031202;28;20582;-76
2022/09/16 06:57:32;;;;;;;10.53;6.33;;;13.40;99.90;;;;;;5031163;28;20263;-75
2022/09/16 06:59:58;;;;;;;11.93;5.90;;;13.50;99.90;;;;;;5032340;28;20564;-75
2022/09/16 07:02:23;;;;;;;13.00;4.97;;;13.50;99.90;;;;;;5032339;28;20208;-76
2022/09/16 07:04:49;;;;;;;9.23;5.87;;;13.40;99.90;;;;;;5031162;28;20187;-76
2022/09/16 07:07:14;;;;;;;10.80;4.90;;;13.30;99.90;;;;;;5032403;28;20195;-76
2022/09/16 07:09:40;;;;;;;6.80;4.90;;;13.30;99.90;;;;;;5030566;28;20658;-76
2022/09/16 07:12:06;;;;;;;6.80;4.50;;;13.10;99.90;;;;;;5031972;28;20208;-76
2022/09/16 07:14:32;;;;;;;11.03;4.43;;;13.10;99.90;;;;;;5030815;28;20942;-76
2022/09/16 07:16:59;;;;;;;9.47;5.13;;;13.10;99.90;;;;;;5032037;28;20418;-76
2022/09/16 07:19:25;;;;;;;8.20;4.77;;;13.00;99.90;;;;;;5032130;28;20492;-76
2022/09/16 07:21:50;;;;;;;8.80;5.00;;;13.00;99.90;;;;;;5031851;28;20534;-76
2022/09/16 07:24:16;;;;;;;12.10;5.70;;;12.90;99.90;;;;;;5030675;28;20799;-76
2022/09/16 07:26:43;;;;;;;8.20;4.53;;;12.90;99.90;;;;;;5032059;28;20194;-76
2022/09/16 07:29:19;;;;;;;5.73;4.73;;;12.90;99.90;;;;;;5032024;28;20218;-76
2022/09/16 07:31:45;;;;;;;13.77;4.57;;;12.90;99.90;;;;;;5031911;28;20450;-76
2022/09/16 07:34:11;;;;;;;7.33;4.20;;;12.90;99.90;;;;;;5031562;28;20426;-76
2022/09/16 07:36:39;;;;;;;10.10;4.53;;;12.80;99.90;;;;;;5030526;28;20761;-75
2022/09/16 07:39:05;;;;;;;10.33;4.53;;;12.80;99.90;;;;;;5031573;28;20458;-76
2022/09/16 07:41:39;;;;;;;9.93;4.00;;;12.60;99.90;;;;;;5030141;28;20438;-76
2022/09/16 07:44:06;;;;;;;11.73;4.47;;;12.60;99.90;;;;;;5031743;28;20427;-76
2022/09/16 07:46:35;;;;;;;17.23;4.87;;;12.70;99.90;;;;;;5031633;28;20422;-75
2022/09/16 07:49:02;;;;;;;8.80;4.20;;;12.60;99.90;;;;;;5031484;28;21107;-76
2022/09/16 07:51:29;;;;;;;8.10;4.27;;;12.50;99.90;;;;;;5031563;28;20418;-76
2022/09/16 07:53:59;;;;;;;9.10;4.30;;;12.50;99.90;;;;;;5031384;28;20451;-76
2022/09/16 07:56:27;;;;;;;9.10;4.30;;;12.50;99.90;;;;;;5030234;28;20472;-76
2022/09/16 07:58:55;;;;;;;6.73;3.70;;;12.50;99.90;;;;;;5030333;28;20804;-76
2022/09/16 08:01:21;;;;;;;11.80;4.27;;;12.60;99.90;;;;;;5031599;28;20429;-76
2022/09/16 08:03:47;;;;;;;4.90;3.80;;;12.50;99.90;;;;;;5030216;28;20447;-75
2022/09/16 08:06:15;;;;;;;9.00;4.60;;;12.60;99.90;;;;;;5031562;28;20423;-76
2022/09/16 08:08:42;;;;;;;7.20;3.93;;;12.30;99.90;;;;;;5029947;28;20564;-76
2022/09/16 08:11:08;;;;;;;8.03;3.80;;;12.50;99.90;;;;;;5031905;28;20419;-76
2022/09/16 08:13:35;;;;;;;6.57;4.10;;;12.60;99.90;;;;;;5033232;28;20458;-76
2022/09/16 08:16:06;;;;;;;7.40;3.47;;;12.40;99.90;;;;;;5030222;28;20422;-76
2022/09/16 08:18:32;;;;;;;8.43;3.23;;;12.40;99.90;;;;;;5030117;28;20427;-76
2022/09/16 08:21:10;;;;;;;7.00;2.63;;;12.40;99.90;;;;;;5031847;28;20427;-76
2022/09/16 08:23:37;;;;;;;6.93;3.17;;;12.40;99.90;;;;;;5031675;28;20453;-76
2022/09/16 08:26:04;;;;;;;4.40;2.90;;;12.20;99.90;;;;;;5031627;28;20497;-76
2022/09/16 08:28:30;;;;;;;5.93;2.80;;;12.20;99.90;;;;;;5013805;28;20469;-76
2022/09/16 08:31:02;;;;;;;8.07;2.73;;;12.20;99.90;;;;;;5030051;28;20525;-76
2022/09/16 08:33:28;;;;;;;6.70;3.40;;;12.20;99.90;;;;;;5031370;28;20932;-76
2022/09/16 08:35:57;;;;;;;4.30;3.30;;;12.20;99.90;;;;;;5029954;28;20429;-76
2022/09/16 08:38:22;;;;;;;4.77;3.30;;;12.20;99.90;;;;;;5031271;28;20670;-76
2022/09/16 08:40:52;;;;;;;6.33;2.90;;;12.30;99.90;;;;;;5031184;28;20518;-76
2022/09/16 08:43:23;;;;;;;6.10;3.07;;;12.30;99.90;;;;;;5029449;28;20205;-76
2022/09/16 08:45:57;;;;;;;10.43;3.20;;;12.40;99.90;;;;;;5030861;28;20481;-75
2022/09/16 08:48:32;;;;;;;7.33;3.20;;;12.40;99.90;;;;;;5030574;28;20458;-76
2022/09/16 08:50:59;;;;;;;7.57;2.77;;;12.50;99.90;;;;;;5030394;28;20418;-76
2022/09/16 08:54:01;;;;;;;131.30;53.10;;;12.60;99.90;;;;;;5030170;28;20434;-76
2022/09/16 08:56:30;;;;;;;7.53;4.27;;;12.60;99.90;;;;;;5030210;28;20411;-76
2022/09/16 08:59:00;;;;;;;5.60;3.10;;;12.70;99.90;;;;;;5030122;28;21260;-76
2022/09/16 09:01:33;;;;;;;4.10;2.40;;;12.70;99.90;;;;;;5030111;28;20430;-76
2022/09/16 09:04:00;;;;;;;11.77;6.43;;;12.70;99.90;;;;;;5029969;28;20767;-75
2022/09/16 09:07:05;;;;;;;11.20;6.80;;;12.80;99.90;;;;;;5029343;28;21038;-76
2022/09/16 09:10:11;;;;;;;56.77;29.60;;;12.90;99.90;;;;;;5028496;28;20530;-75
2022/09/16 09:12:48;;;;;;;8.00;4.00;;;13.00;99.90;;;;;;5029845;28;20458;-75
2022/09/16 09:15:19;;;;;;;14.43;8.57;;;13.00;99.90;;;;;;5029923;28;20411;-76
2022/09/16 09:18:14;;;;;;;6.77;3.30;;;13.00;99.90;;;;;;5029848;28;20423;-75
2022/09/16 09:21:25;;;;;;;9.93;4.80;;;13.10;99.90;;;;;;5029623;28;20943;-75
2022/09/16 09:24:16;;;;;;;3.97;2.80;;;13.10;99.90;;;;;;5027426;28;20434;-75
2022/09/16 09:26:51;;;;;;;7.13;4.17;;;13.20;99.90;;;;;;5029882;28;20908;-75
2022/09/16 09:29:25;;;;;;;24.23;11.30;;;13.20;99.90;;;;;;5029414;28;20553;-75
2022/09/16 09:31:54;;;;;;;5.50;3.33;;;13.30;99.90;;;;;;5029091;28;20446;-75
2022/09/16 09:34:28;;;;;;;3.20;2.90;;;13.40;99.90;;;;;;5029304;28;20420;-75
2022/09/16 09:37:31;;;;;;;4.37;3.10;;;13.30;99.90;;;;;;5029460;28;20873;-75
2022/09/16 09:40:09;;;;;;;9.93;5.20;;;13.30;99.90;;;;;;5029305;28;20496;-75
2022/09/16 09:42:52;;;;;;;97.93;35.17;;;13.40;99.90;;;;;;5027562;28;20960;-75
2022/09/16 09:45:40;;;;;;;8.10;4.10;;;13.40;99.90;;;;;;5029062;28;20501;-75
2022/09/16 09:48:21;;;;;;;4.40;3.30;;;13.40;99.90;;;;;;5029005;28;20419;-75
2022/09/16 09:50:48;;;;;;;4.00;3.40;;;13.50;99.90;;;;;;5029098;28;20415;-75
2022/09/16 09:53:27;;;;;;;4.60;3.17;;;13.40;99.90;;;;;;5028994;28;20447;-75
2022/09/16 09:56:18;;;;;;;6.40;4.00;;;13.40;99.90;;;;;;5028988;28;20497;-75
2022/09/16 09:58:54;;;;;;;8.60;4.97;;;13.40;99.90;;;;;;5023168;28;20451;-75
2022/09/16 10:01:20;;;;;;;36.83;18.87;;;13.40;99.90;;;;;;5028881;28;20455;-75
2022/09/16 10:03:49;;;;;;;8.10;3.90;;;13.40;99.90;;;;;;5027251;28;20447;-75
2022/09/16 10:06:17;;;;;;;5.40;3.43;;;13.50;99.90;;;;;;5027638;28;20466;-75
2022/09/16 10:08:49;;;;;;;3.93;2.80;;;13.40;99.90;;;;;;5028753;28;20479;-75
2022/09/16 10:11:26;;;;;;;6.13;2.90;;;13.40;99.90;;;;;;5030114;28;20894;-75
2022/09/16 10:13:54;;;;;;;6.17;3.27;;;13.40;99.90;;;;;;5029053;28;20526;-75
2022/09/16 10:16:44;;;;;;;5.73;2.87;;;13.50;99.90;;;;;;5028237;28;20454;-75
2022/09/16 10:19:20;;;;;;;3.77;2.87;;;13.50;99.90;;;;;;5027258;28;20432;-75
2022/09/16 10:21:52;;;;;;;3.47;2.90;;;13.50;99.90;;;;;;5028457;28;20445;-75
2022/09/16 10:24:30;;;;;;;9.70;3.80;;;13.60;99.90;;;;;;5028559;28;20661;-75
2022/09/16 10:26:57;;;;;;;3.43;3.00;;;13.50;99.90;;;;;;5026911;28;20441;-75
2022/09/16 10:29:26;;;;;;;2.93;2.30;;;13.70;99.90;;;;;;5028488;28;20466;-75
2022/09/16 10:31:52;;;;;;;3.27;2.43;;;13.90;99.90;;;;;;5028399;28;20446;-75
2022/09/16 10:34:26;;;;;;;5.07;3.50;;;14.20;99.90;;;;;;5027076;28;20426;-75
2022/09/16 10:37:18;;;;;;;3.03;2.83;;;15.20;99.90;;;;;;5028371;28;20508;-75
2022/09/16 10:39:57;;;;;;;4.13;3.10;;;16.40;99.90;;;;;;5024167;28;20449;-75
2022/09/16 10:42:25;;;;;;;23.90;13.90;;;17.00;99.90;;;;;;5028557;28;20528;-75
2022/09/16 10:44:53;;;;;;;6.70;3.17;;;16.80;99.90;;;;;;5028450;28;20433;-75
2022/09/16 10:47:24;;;;;;;3.30;2.53;;;16.60;99.90;;;;;;5028285;28;20919;-75
2022/09/16 10:49:53;;;;;;;3.60;3.30;;;16.40;99.90;;;;;;5028581;28;20490;-75
2022/09/16 10:52:28;;;;;;;4.40;2.57;;;16.20;99.90;;;;;;5028272;28;20578;-75
2022/09/16 10:54:57;;;;;;;4.63;2.33;;;16.20;99.90;;;;;;5026897;28;20999;-75
2022/09/16 10:57:31;;;;;;;4.30;3.00;;;16.30;99.90;;;;;;5026893;28;20440;-75
2022/09/16 11:00:13;;;;;;;4.53;2.87;;;16.30;99.90;;;;;;5027046;28;20435;-75
2022/09/16 11:03:13;;;;;;;5.40;2.20;;;16.20;99.90;;;;;;5028729;28;20450;-76
2022/09/16 11:06:01;;;;;;;2.73;2.50;;;15.90;99.90;;;;;;5028741;28;20433;-77
2022/09/16 11:08:56;;;;;;;3.30;2.90;;;15.80;99.90;;;;;;5028460;28;20468;-76
2022/09/16 11:11:53;;;;;;;3.63;2.73;;;15.80;99.90;;;;;;5028433;28;20442;-77
2022/09/16 11:14:36;;;;;;;3.20;2.27;;;15.80;99.90;;;;;;5027329;28;21013;-76
2022/09/16 11:17:21;;;;;;;2.70;2.50;;;15.90;99.90;;;;;;5029827;28;20487;-76
2022/09/16 11:20:19;;;;;;;5.87;2.90;;;16.20;99.90;;;;;;5029992;28;20509;-76
2022/09/16 11:23:25;;;;;;;8.30;2.77;;;16.10;99.90;;;;;;5029632;28;20445;-76
2022/09/16 11:26:10;;;;;;;3.83;2.60;;;16.10;99.90;;;;;;5029915;28;20416;-74
2022/09/16 11:28:44;;;;;;;5.47;2.50;;;16.30;99.90;;;;;;5030905;28;20507;-76
2022/09/16 11:31:31;;;;;;;8.37;3.10;;;16.10;99.90;;;;;;5032897;28;20427;-76
2022/09/16 11:34:15;;;;;;;5.03;2.90;;;16.10;99.90;;;;;;5033423;28;20418;-76
2022/09/16 11:36:43;;;;;;;5.23;3.13;;;15.80;99.90;;;;;;5032569;28;20408;-76
2022/09/16 11:39:37;;;;;;;7.50;2.70;;;15.70;99.90;;;;;;5031876;28;20512;-76
2022/09/16 11:42:16;;;;;;;3.57;2.60;;;15.60;99.90;;;;;;5031942;28;20859;-76
2022/09/16 11:45:01;;;;;;;3.17;2.87;;;15.40;99.90;;;;;;5031743;28;20415;-76
2022/09/16 11:48:03;;;;;;;7.47;2.90;;;15.20;99.90;;;;;;5031739;28;20424;-76
2022/09/16 11:50:50;;;;;;;7.47;2.83;;;15.20;99.90;;;;;;5031835;28;20501;-76
2022/09/16 11:53:25;;;;;;;6.83;3.23;;;15.30;99.90;;;;;;5031466;28;20435;-76
2022/09/16 11:55:58;;;;;;;5.53;3.40;;;15.10;99.90;;;;;;5030168;28;20428;-75
2022/09/16 11:58:32;;;;;;;4.60;3.30;;;15.20;99.90;;;;;;5031615;28;20518;-75
2022/09/16 12:01:05;;;;;;;6.27;3.00;;;15.30;99.90;;;;;;5030219;28;20428;-75
2022/09/16 12:03:39;;;;;;;3.30;3.00;;;15.20;99.90;;;;;;5031796;28;20447;-75
2022/09/16 12:06:15;;;;;;;6.80;3.00;;;15.20;99.90;;;;;;5031377;28;20503;-75
2022/09/16 12:08:56;;;;;;;5.37;2.73;;;15.20;99.90;;;;;;5031298;28;20459;-75
2022/09/16 12:11:38;;;;;;;11.13;3.30;;;15.10;99.90;;;;;;5032414;28;20434;-76
2022/09/16 12:14:32;;;;;;;7.93;3.50;;;15.20;99.90;;;;;;5031595;28;20458;-76
2022/09/16 12:17:09;;;;;;;3.00;2.70;;;15.30;99.90;;;;;;5029651;28;20412;-75
2022/09/16 12:19:41;;;;;;;9.10;4.30;;;15.30;99.90;;;;;;5031249;28;20427;-74
2022/09/16 12:22:33;;;;;;;3.80;3.30;;;15.40;99.90;;;;;;5031250;28;20473;-75
2022/09/16 12:25:08;;;;;;;4.73;3.47;;;15.40;99.90;;;;;;5029738;28;20439;-76
2022/09/16 12:27:47;;;;;;;3.30;2.77;;;15.40;99.90;;;;;;5031037;28;20415;-74
2022/09/16 12:30:19;;;;;;;9.13;2.50;;;15.40;99.90;;;;;;5030848;28;20464;-76
2022/09/16 12:32:49;;;;;;;3.17;2.83;;;15.30;99.90;;;;;;5030687;28;20431;-76
2022/09/16 12:35:24;;;;;;;6.27;2.83;;;15.50;99.90;;;;;;5031133;28;20413;-76
2022/09/16 12:37:52;;;;;;;5.53;2.67;;;15.80;99.90;;;;;;5013595;28;20521;-76
2022/09/16 12:41:05;;;;;;;5.80;2.90;;;16.10;99.90;;;;;;5029709;28;20458;-76
2022/09/16 12:43:50;;;;;;;3.77;2.70;;;16.20;99.90;;;;;;5011736;28;20463;-75
2022/09/16 12:47:16;;;;;;;5.20;2.60;;;16.30;99.90;;;;;;5030619;28;20980;-76
2022/09/16 12:50:08;;;;;;;4.47;2.30;;;16.40;99.90;;;;;;4961205;28;20483;-76
2022/09/16 12:53:15;;;;;;;6.37;1.70;;;16.50;99.90;;;;;;4968999;28;20444;-76
2022/09/16 12:56:05;;;;;;;4.13;2.20;;;16.60;99.90;;;;;;5025116;28;20432;-76
2022/09/16 12:59:03;;;;;;;2.97;1.87;;;16.60;99.90;;;;;;5030316;28;20564;-75
2022/09/16 13:01:38;;;;;;;4.33;2.00;;;16.40;99.90;;;;;;5030436;28;20958;-76
2022/09/16 13:04:22;;;;;;;6.37;1.97;;;16.40;99.90;;;;;;5030987;28;20424;-76
2022/09/16 13:06:50;;;;;;;4.90;2.20;;;16.30;99.90;;;;;;5029310;28;20437;-76
2022/09/16 13:09:23;;;;;;;5.50;2.10;;;16.20;99.90;;;;;;5030463;28;20479;-76
2022/09/16 13:11:59;;;;;;;4.57;1.70;;;16.10;99.90;;;;;;5030619;28;20445;-76
2022/09/16 13:14:50;;;;;;;2.20;1.27;;;15.90;99.90;;;;;;5028451;28;20896;-76
2022/09/16 13:17:30;;;;;;;5.57;2.13;;;15.80;99.90;;;;;;5027775;28;20429;-76